Time;durP1;ratioP1;P1;durP2;ratioP2;P2;SDS_P1;SDS_P2;PMS_P1;PMS_P2;Temp;Humidity;BMP_temperature;BMP_pressure;BME280_temperature;BME280_humidity;BME280_pressure;Samples;Min_cycle;Max_cycle;Signal;HPM_P1;HPM_P2
2022/11/06 00:00:55;;;;;;;19.25;9.73;;;6.10;1.00;;;;;;6191548;23;20239;-78
2022/11/06 00:03:23;;;;;;;14.20;9.20;;;6.10;1.00;;;;;;6187498;23;20768;-80
2022/11/06 00:08:37;;;;;;;18.20;9.20;;;6.20;1.00;;;;;;6223912;22;20218;-79
2022/11/06 00:11:10;;;;;;;17.60;8.80;;;6.20;1.00;;;;;;6222274;22;20221;-78
2022/11/06 00:13:37;;;;;;;15.93;8.95;;;6.20;1.00;;;;;;6221542;22;20674;-79
2022/11/06 00:16:06;;;;;;;21.70;9.98;;;6.20;1.00;;;;;;6222963;22;20267;-78
2022/11/06 00:18:34;;;;;;;15.35;8.80;;;6.20;1.00;;;;;;6223325;22;20221;-78
2022/11/06 00:21:10;;;;;;;14.35;9.50;;;6.20;1.00;;;;;;6222812;22;20289;-78
2022/11/06 00:23:39;;;;;;;16.60;9.25;;;6.10;1.00;;;;;;6222727;22;20214;-79
2022/11/06 00:26:08;;;;;;;18.58;9.00;;;6.10;1.00;;;;;;6222654;22;20219;-77
2022/11/06 00:28:38;;;;;;;14.95;9.90;;;6.10;1.00;;;;;;6222935;22;20929;-77
2022/11/06 00:31:06;;;;;;;18.45;9.73;;;6.10;1.00;;;;;;6222732;22;20205;-79
2022/11/06 00:33:33;;;;;;;19.50;10.15;;;6.10;1.00;;;;;;6223520;22;20680;-78
2022/11/06 00:36:04;;;;;;;13.15;9.65;;;6.00;1.00;;;;;;6221422;22;20214;-79
2022/11/06 00:38:31;;;;;;;16.42;9.38;;;6.00;1.00;;;;;;6223569;22;20214;-77
2022/11/06 00:41:02;;;;;;;17.38;9.30;;;5.90;1.00;;;;;;6224434;22;20287;-78
2022/11/06 00:43:29;;;;;;;18.60;9.00;;;6.00;1.00;;;;;;6225438;22;20298;-77
2022/11/06 00:46:02;;;;;;;21.15;9.20;;;5.90;1.00;;;;;;6223167;22;20298;-79
2022/11/06 00:48:29;;;;;;;15.00;8.57;;;5.90;1.00;;;;;;6224869;22;20288;-78
2022/11/06 00:51:01;;;;;;;14.77;9.27;;;5.80;1.00;;;;;;6223048;22;20266;-78
2022/11/06 00:53:28;;;;;;;15.32;8.20;;;5.80;1.00;;;;;;6225259;22;20204;-77
2022/11/06 00:56:04;;;;;;;18.92;9.13;;;5.80;1.00;;;;;;6222957;22;20297;-76
2022/11/06 00:58:35;;;;;;;17.83;9.35;;;5.80;1.00;;;;;;6224544;22;20218;-78
2022/11/06 01:01:09;;;;;;;16.48;8.90;;;5.80;1.00;;;;;;6223055;22;20210;-76
2022/11/06 01:03:36;;;;;;;15.52;9.20;;;5.80;1.00;;;;;;6223061;22;20286;-77
2022/11/06 01:06:17;;;;;;;16.25;9.10;;;5.80;1.00;;;;;;6222156;22;20217;-78
2022/11/06 01:08:46;;;;;;;15.88;8.93;;;5.80;1.00;;;;;;6222477;22;20244;-78
2022/11/06 01:11:18;;;;;;;18.65;9.57;;;5.80;1.00;;;;;;6224110;22;20211;-78
2022/11/06 01:13:49;;;;;;;14.75;8.27;;;5.80;1.00;;;;;;6223615;22;20219;-77
2022/11/06 01:16:16;;;;;;;16.98;8.65;;;5.80;1.00;;;;;;6223862;22;20285;-78
2022/11/06 01:18:47;;;;;;;16.48;9.20;;;5.80;1.00;;;;;;6222605;22;20218;-78
2022/11/06 01:21:17;;;;;;;19.80;9.05;;;5.90;1.00;;;;;;6224425;22;20685;-77
2022/11/06 01:23:44;;;;;;;19.67;9.63;;;5.90;1.00;;;;;;6223346;22;20222;-78
2022/11/06 01:26:13;;;;;;;14.27;9.20;;;5.80;1.00;;;;;;6221877;22;20300;-77
2022/11/06 01:28:42;;;;;;;15.52;9.50;;;5.80;1.00;;;;;;6223378;22;20690;-77
2022/11/06 01:31:10;;;;;;;15.00;9.18;;;5.70;1.00;;;;;;6224231;22;20216;-76
2022/11/06 01:33:38;;;;;;;16.98;9.43;;;5.70;1.00;;;;;;6223797;22;20229;-78
2022/11/06 01:36:06;;;;;;;20.63;10.43;;;5.70;1.00;;;;;;6223489;22;20686;-79
2022/11/06 01:38:33;;;;;;;18.05;10.23;;;5.70;1.00;;;;;;6223201;22;20224;-78
2022/11/06 01:41:01;;;;;;;19.90;10.18;;;5.70;1.00;;;;;;6220218;22;20682;-78
2022/11/06 01:46:30;;;;;;;19.38;9.98;;;5.70;1.00;;;;;;5172194;27;20647;-78
2022/11/06 01:49:03;;;;;;;15.70;9.80;;;5.80;1.00;;;;;;5139883;27;20243;-79
2022/11/06 01:51:37;;;;;;;17.65;10.40;;;5.80;1.00;;;;;;5142965;27;20711;-76
2022/11/06 01:54:05;;;;;;;14.85;9.07;;;5.80;1.00;;;;;;5140777;27;20216;-79
2022/11/06 01:56:38;;;;;;;17.10;9.88;;;5.80;1.00;;;;;;5142096;27;20235;-77
2022/11/06 01:59:07;;;;;;;18.45;9.05;;;5.90;1.00;;;;;;5139647;27;20243;-76
2022/11/06 02:01:35;;;;;;;17.40;10.75;;;5.80;1.00;;;;;;5139005;27;20235;-77
2022/11/06 02:04:07;;;;;;;14.07;9.30;;;5.90;1.00;;;;;;5131000;27;20397;-78
2022/11/06 02:06:37;;;;;;;17.83;9.80;;;5.90;1.00;;;;;;5141886;27;20752;-77
2022/11/06 02:09:10;;;;;;;16.58;10.90;;;6.00;1.00;;;;;;5141201;27;20238;-78
2022/11/06 02:11:37;;;;;;;19.10;10.75;;;6.00;1.00;;;;;;5140143;27;20290;-79
2022/11/06 02:14:14;;;;;;;15.43;9.25;;;6.00;1.00;;;;;;5137501;27;20234;-77
2022/11/06 02:16:51;;;;;;;16.83;10.52;;;6.00;1.00;;;;;;5139878;27;20262;-78
2022/11/06 02:19:45;;;;;;;16.88;10.02;;;6.00;1.00;;;;;;5142778;27;20264;-77
2022/11/06 02:22:36;;;;;;;15.57;9.13;;;5.90;1.00;;;;;;5139945;27;21068;-78
2022/11/06 02:25:12;;;;;;;15.13;10.00;;;6.00;1.00;;;;;;5141423;27;20737;-78
2022/11/06 02:27:44;;;;;;;16.27;10.10;;;6.00;1.00;;;;;;5141031;27;20318;-78
2022/11/06 02:30:13;;;;;;;13.55;9.00;;;6.00;1.00;;;;;;5135830;27;20277;-78
2022/11/06 02:32:44;;;;;;;14.75;9.02;;;6.00;1.00;;;;;;5139076;27;20236;-79
2022/11/06 02:35:21;;;;;;;17.20;9.20;;;6.00;1.00;;;;;;5135126;27;20285;-78
2022/11/06 02:37:53;;;;;;;17.77;9.25;;;6.00;1.00;;;;;;5151041;27;20314;-79
2022/11/06 02:40:23;;;;;;;15.00;9.27;;;5.90;1.00;;;;;;5139789;27;20970;-76
2022/11/06 02:42:56;;;;;;;14.20;8.65;;;5.90;1.00;;;;;;5138600;27;20238;-76
2022/11/06 02:45:25;;;;;;;19.83;9.70;;;5.90;1.00;;;;;;5138166;27;21065;-77
2022/11/06 02:47:55;;;;;;;17.13;9.70;;;6.00;1.00;;;;;;5141203;27;20243;-78
2022/11/06 02:50:25;;;;;;;15.70;9.27;;;5.90;1.00;;;;;;5137825;27;20235;-78
2022/11/06 02:52:55;;;;;;;15.05;9.90;;;5.90;1.00;;;;;;5141933;27;20246;-81
2022/11/06 02:55:27;;;;;;;15.35;9.38;;;5.90;1.00;;;;;;5138729;27;20329;-78
2022/11/06 02:57:59;;;;;;;17.08;9.77;;;5.90;1.00;;;;;;5129551;27;20237;-79
2022/11/06 03:00:27;;;;;;;15.52;8.85;;;5.80;1.00;;;;;;5123462;27;20237;-76
2022/11/06 03:02:58;;;;;;;15.50;9.23;;;5.90;1.00;;;;;;5125357;27;20268;-78
2022/11/06 03:05:30;;;;;;;15.95;9.75;;;5.90;1.00;;;;;;5127000;27;20590;-77
2022/11/06 03:08:06;;;;;;;15.60;9.57;;;5.90;1.00;;;;;;5129496;27;20234;-77
2022/11/06 03:10:41;;;;;;;19.63;11.52;;;6.00;1.00;;;;;;5128123;27;20244;-79
2022/11/06 03:13:18;;;;;;;16.35;10.20;;;6.00;1.00;;;;;;5124169;27;20744;-77
2022/11/06 03:15:52;;;;;;;14.52;9.02;;;5.90;1.00;;;;;;5123155;27;20309;-77
2022/11/06 03:18:29;;;;;;;16.70;9.85;;;5.90;1.00;;;;;;5126755;27;20238;-76
2022/11/06 03:21:01;;;;;;;14.82;9.15;;;5.90;1.00;;;;;;5127662;27;20299;-77
2022/11/06 03:23:34;;;;;;;18.20;10.23;;;5.90;1.00;;;;;;5121992;27;20250;-77
2022/11/06 03:26:12;;;;;;;18.50;10.93;;;5.90;1.00;;;;;;5125308;27;20259;-78
2022/11/06 03:28:48;;;;;;;17.75;9.98;;;5.90;1.00;;;;;;5127565;27;20235;-78
2022/11/06 03:31:18;;;;;;;17.90;9.98;;;5.90;1.00;;;;;;5127621;27;20749;-79
2022/11/06 03:33:55;;;;;;;17.98;10.35;;;5.80;1.00;;;;;;5124130;27;20266;-77
2022/11/06 03:36:25;;;;;;;16.42;9.52;;;5.80;1.00;;;;;;5129238;27;20240;-78
2022/11/06 03:38:55;;;;;;;15.57;9.75;;;5.70;1.00;;;;;;5122608;27;20973;-77
2022/11/06 03:41:30;;;;;;;18.40;10.20;;;5.70;1.00;;;;;;5130424;27;20326;-78
2022/11/06 03:44:01;;;;;;;14.05;8.75;;;5.60;1.00;;;;;;5128126;27;21036;-77
2022/11/06 03:46:29;;;;;;;17.33;9.57;;;5.60;1.00;;;;;;5126942;27;20236;-77
2022/11/06 03:49:02;;;;;;;16.38;10.55;;;5.60;1.00;;;;;;5124932;27;20237;-79
2022/11/06 03:51:36;;;;;;;15.88;9.75;;;5.50;1.00;;;;;;5125529;27;20239;-77
2022/11/06 03:54:07;;;;;;;15.90;9.10;;;5.50;1.00;;;;;;5123375;27;20259;-77
2022/11/06 03:56:38;;;;;;;15.35;10.10;;;5.40;1.00;;;;;;5125905;27;20231;-77
2022/11/06 03:59:07;;;;;;;16.40;8.73;;;5.40;1.00;;;;;;5126485;27;20236;-77
2022/11/06 04:01:39;;;;;;;17.77;9.95;;;5.40;1.00;;;;;;5124046;27;20273;-76
2022/11/06 04:04:12;;;;;;;18.17;10.40;;;5.40;1.00;;;;;;5118498;27;20262;-78
2022/11/06 04:06:44;;;;;;;16.77;9.68;;;5.40;1.00;;;;;;5128386;27;20290;-77
2022/11/06 04:15:00;;;;;;;16.55;9.90;;;5.30;1.00;;;;;;5053485;28;20288;-77
2022/11/06 04:17:29;;;;;;;15.73;9.60;;;5.30;1.00;;;;;;5106220;27;20730;-78
2022/11/06 04:20:00;;;;;;;15.18;9.45;;;5.30;1.00;;;;;;5122513;27;20236;-77
2022/11/06 04:22:44;;;;;;;16.00;9.55;;;5.30;1.00;;;;;;5125027;27;20234;-77
2022/11/06 04:28:22;;;;;;;18.67;10.75;;;5.20;1.00;;;;;;5126910;27;20262;-76
2022/11/06 04:31:03;;;;;;;16.20;9.48;;;5.20;1.00;;;;;;5126523;27;20322;-77
2022/11/06 04:33:36;;;;;;;17.08;10.05;;;5.20;1.00;;;;;;5124821;27;20234;-77
2022/11/06 04:36:16;;;;;;;18.30;10.02;;;5.20;1.00;;;;;;5125702;27;20702;-79
2022/11/06 04:38:51;;;;;;;16.00;10.50;;;5.20;1.00;;;;;;5126471;27;20334;-77
2022/11/06 04:41:33;;;;;;;15.60;10.43;;;5.20;1.00;;;;;;5128134;27;20235;-77
2022/11/06 04:44:05;;;;;;;19.40;10.75;;;5.20;1.00;;;;;;5125543;27;20243;-77
2022/11/06 04:46:39;;;;;;;15.55;10.02;;;5.20;1.00;;;;;;5130641;27;20229;-77
2022/11/06 04:49:08;;;;;;;18.13;11.02;;;5.20;1.00;;;;;;5126306;27;20241;-77
2022/11/06 04:51:38;;;;;;;15.88;10.10;;;5.20;1.00;;;;;;5128106;27;20318;-78
2022/11/06 04:54:07;;;;;;;15.23;10.07;;;5.20;1.00;;;;;;5123117;27;20235;-78
2022/11/06 04:56:36;;;;;;;14.35;9.55;;;5.20;1.00;;;;;;5121831;27;20318;-78
2022/11/06 04:59:04;;;;;;;19.50;9.85;;;5.10;1.00;;;;;;5118602;27;20255;-78
2022/11/06 05:01:31;;;;;;;14.75;10.20;;;5.10;1.00;;;;;;5122890;27;20239;-77
2022/11/06 05:04:00;;;;;;;15.65;9.65;;;5.10;1.00;;;;;;5118975;27;20239;-78
2022/11/06 05:06:27;;;;;;;17.15;10.93;;;5.10;1.00;;;;;;5120889;27;20785;-80
2022/11/06 05:08:56;;;;;;;15.23;9.90;;;5.10;1.00;;;;;;5125182;27;20975;-79
2022/11/06 05:11:23;;;;;;;15.38;10.27;;;5.10;1.00;;;;;;5129624;27;20251;-80
2022/11/06 05:13:50;;;;;;;18.75;11.55;;;5.00;1.00;;;;;;5127659;27;20236;-76
2022/11/06 05:16:20;;;;;;;18.02;11.88;;;5.00;1.00;;;;;;5126095;27;20241;-76
2022/11/06 05:18:48;;;;;;;16.92;10.98;;;5.00;1.00;;;;;;5128226;27;21143;-76
2022/11/06 05:24:01;;;;;;;15.48;10.10;;;5.00;1.00;;;;;;5122991;27;20691;-77
2022/11/06 05:26:29;;;;;;;16.00;11.90;;;5.00;1.00;;;;;;5128693;27;20714;-77
2022/11/06 05:28:56;;;;;;;17.05;10.65;;;5.00;1.00;;;;;;5122649;27;20235;-77
2022/11/06 05:31:23;;;;;;;18.23;10.30;;;4.90;1.00;;;;;;5122934;27;20268;-77
2022/11/06 05:33:50;;;;;;;15.60;10.93;;;4.90;1.00;;;;;;5123195;27;20244;-77
2022/11/06 05:36:19;;;;;;;16.25;10.15;;;4.90;1.00;;;;;;5123126;27;20235;-79
2022/11/06 05:38:47;;;;;;;14.02;9.57;;;4.90;1.00;;;;;;5119177;27;20380;-77
2022/11/06 05:41:16;;;;;;;17.50;10.15;;;4.90;1.00;;;;;;5119842;27;20263;-79
2022/11/06 05:43:44;;;;;;;19.40;11.10;;;4.90;1.00;;;;;;5117873;27;20236;-77
2022/11/06 05:46:11;;;;;;;16.08;10.25;;;5.00;1.00;;;;;;5122761;27;20239;-78
2022/11/06 05:48:38;;;;;;;17.13;10.80;;;4.90;1.00;;;;;;5121396;27;20714;-77
2022/11/06 05:51:07;;;;;;;15.60;9.93;;;4.90;1.00;;;;;;5125381;27;20236;-77
2022/11/06 05:53:38;;;;;;;17.08;11.30;;;4.90;1.00;;;;;;5127113;27;20726;-77
2022/11/06 05:56:06;;;;;;;17.08;10.05;;;4.90;1.00;;;;;;5120724;27;20781;-77
2022/11/06 05:58:33;;;;;;;19.27;11.32;;;4.90;1.00;;;;;;5120775;27;20322;-77
2022/11/06 06:01:00;;;;;;;17.60;12.05;;;4.90;1.00;;;;;;5125283;27;20292;-77
2022/11/06 06:03:27;;;;;;;17.92;11.05;;;4.90;1.00;;;;;;5122816;27;20561;-78
2022/11/06 06:05:53;;;;;;;16.30;11.93;;;4.90;1.00;;;;;;5125254;27;20699;-78
2022/11/06 06:08:20;;;;;;;18.70;11.20;;;4.90;1.00;;;;;;5124597;27;20311;-78
2022/11/06 06:10:49;;;;;;;16.40;10.98;;;4.90;1.00;;;;;;5124374;27;20228;-79
2022/11/06 06:13:16;;;;;;;21.35;10.57;;;4.90;1.00;;;;;;5123098;27;20322;-77
2022/11/06 06:15:43;;;;;;;15.32;10.15;;;4.80;1.00;;;;;;5123324;27;20240;-77
2022/11/06 06:18:11;;;;;;;19.40;11.10;;;4.90;1.00;;;;;;5121810;27;20287;-76
2022/11/06 06:20:39;;;;;;;19.25;12.23;;;4.90;1.00;;;;;;5121805;27;20237;-77
2022/11/06 06:23:06;;;;;;;18.65;12.70;;;4.90;1.00;;;;;;5124762;27;20876;-76
2022/11/06 06:25:33;;;;;;;20.80;12.07;;;4.90;1.00;;;;;;5120440;27;21164;-79
2022/11/06 06:28:04;;;;;;;16.92;11.93;;;4.90;1.00;;;;;;5121972;27;21128;-79
2022/11/06 06:30:31;;;;;;;21.85;12.07;;;4.90;1.00;;;;;;5118520;27;20330;-78
2022/11/06 06:33:04;;;;;;;15.45;11.45;;;4.90;1.00;;;;;;5124768;27;20239;-79
2022/11/06 06:35:35;;;;;;;17.38;12.18;;;4.90;1.00;;;;;;5127915;27;20242;-78
2022/11/06 06:38:02;;;;;;;20.30;11.48;;;4.80;1.00;;;;;;5121079;27;20608;-77
2022/11/06 06:40:31;;;;;;;18.60;11.93;;;4.80;1.00;;;;;;5125917;27;20305;-77
2022/11/06 06:42:58;;;;;;;18.88;11.70;;;4.90;1.00;;;;;;5125769;27;20314;-78
2022/11/06 06:45:27;;;;;;;15.73;10.38;;;4.90;1.00;;;;;;5125128;27;21066;-78
2022/11/06 06:47:56;;;;;;;15.23;10.80;;;4.90;1.00;;;;;;5126960;27;20232;-79
2022/11/06 06:50:23;;;;;;;16.65;11.93;;;5.00;1.00;;;;;;5129369;27;20290;-78
2022/11/06 06:52:49;;;;;;;18.40;12.48;;;5.00;1.00;;;;;;5124401;27;20335;-77
2022/11/06 06:55:19;;;;;;;17.50;12.63;;;5.00;1.00;;;;;;5132629;27;20301;-77
2022/11/06 06:57:46;;;;;;;17.02;10.75;;;5.10;1.00;;;;;;5120741;27;20242;-78
2022/11/06 07:00:13;;;;;;;15.57;11.35;;;5.10;1.00;;;;;;5119525;27;21001;-80
2022/11/06 07:02:42;;;;;;;18.58;11.05;;;5.10;1.00;;;;;;5133111;27;20236;-76
2022/11/06 07:05:10;;;;;;;19.38;13.27;;;5.20;1.00;;;;;;5129641;27;20236;-77
2022/11/06 07:07:37;;;;;;;18.00;10.80;;;5.30;1.00;;;;;;5127963;27;20904;-80
2022/11/06 07:10:05;;;;;;;18.73;11.85;;;5.20;1.00;;;;;;5125813;27;20231;-79
2022/11/06 07:12:32;;;;;;;21.45;12.07;;;5.30;1.00;;;;;;5130183;27;20242;-78
2022/11/06 07:14:59;;;;;;;20.27;12.02;;;5.40;1.00;;;;;;5121770;27;20231;-78
2022/11/06 07:17:28;;;;;;;17.20;10.90;;;5.40;1.00;;;;;;5125383;27;20246;-78
2022/11/06 07:19:56;;;;;;;16.67;11.32;;;5.50;1.00;;;;;;5120531;27;20273;-79
2022/11/06 07:22:26;;;;;;;17.80;12.52;;;5.50;1.00;;;;;;5128593;27;20628;-78
2022/11/06 07:24:53;;;;;;;16.65;11.60;;;5.50;1.00;;;;;;5113733;27;21050;-77
2022/11/06 07:27:20;;;;;;;19.90;12.63;;;5.60;1.00;;;;;;5127265;27;20703;-78
2022/11/06 07:29:47;;;;;;;16.98;11.27;;;5.70;1.00;;;;;;5123791;27;20234;-78
2022/11/06 07:32:14;;;;;;;18.55;12.27;;;5.70;1.00;;;;;;5127255;27;20231;-78
2022/11/06 07:34:42;;;;;;;17.92;11.82;;;5.80;1.00;;;;;;5126871;27;20239;-78
2022/11/06 07:37:11;;;;;;;16.58;11.38;;;5.80;1.00;;;;;;5126817;27;20220;-78
2022/11/06 07:39:38;;;;;;;18.58;12.43;;;5.80;1.00;;;;;;5127008;27;20313;-79
2022/11/06 07:42:08;;;;;;;17.20;11.70;;;5.90;1.00;;;;;;5125273;27;20244;-80
2022/11/06 07:44:39;;;;;;;18.52;11.98;;;6.00;1.00;;;;;;5121384;27;20265;-79
2022/11/06 07:47:06;;;;;;;20.20;12.40;;;6.00;1.00;;;;;;5109688;27;20616;-77
2022/11/06 07:49:33;;;;;;;20.98;12.27;;;6.20;1.00;;;;;;5124511;27;20245;-78
2022/11/06 07:52:01;;;;;;;18.17;10.60;;;6.30;1.00;;;;;;5120518;27;20661;-79
2022/11/06 07:54:30;;;;;;;18.70;11.40;;;6.50;1.00;;;;;;5120358;27;20244;-77
2022/11/06 07:56:57;;;;;;;23.75;12.63;;;6.70;1.00;;;;;;5127636;27;20220;-77
2022/11/06 07:59:24;;;;;;;16.13;11.15;;;6.80;1.00;;;;;;5118831;27;20234;-76
2022/11/06 08:01:51;;;;;;;18.30;11.27;;;6.90;1.00;;;;;;5133093;27;20742;-77
2022/11/06 08:04:18;;;;;;;15.73;10.40;;;6.90;1.00;;;;;;5116164;27;20239;-77
2022/11/06 08:06:44;;;;;;;16.00;10.27;;;7.10;1.00;;;;;;5111961;27;20232;-78
2022/11/06 08:09:11;;;;;;;14.27;9.98;;;7.20;1.00;;;;;;5111755;27;20242;-77
2022/11/06 08:11:40;;;;;;;17.05;10.55;;;7.50;1.00;;;;;;5121992;27;20674;-77
2022/11/06 08:14:06;;;;;;;16.50;10.85;;;7.90;1.00;;;;;;5125199;27;20323;-76
2022/11/06 08:16:33;;;;;;;17.02;10.73;;;7.90;1.00;;;;;;5123478;27;20228;-79
2022/11/06 08:19:00;;;;;;;15.05;9.48;;;7.90;1.00;;;;;;5125096;27;20245;-77
2022/11/06 08:21:30;;;;;;;13.60;8.98;;;7.90;1.00;;;;;;5127766;27;20241;-78
2022/11/06 08:23:57;;;;;;;15.25;10.25;;;8.00;1.00;;;;;;5125593;27;20240;-79
2022/11/06 08:26:26;;;;;;;14.73;9.88;;;8.10;1.00;;;;;;5121404;27;20708;-78
2022/11/06 08:29:00;;;;;;;14.43;9.15;;;8.10;1.00;;;;;;5123825;27;20360;-79
2022/11/06 08:31:27;;;;;;;19.08;10.75;;;8.10;1.00;;;;;;5124179;27;21005;-76
2022/11/06 08:33:55;;;;;;;14.23;9.10;;;8.10;1.00;;;;;;5125600;27;20249;-78
2022/11/06 08:36:22;;;;;;;14.40;8.77;;;8.20;1.00;;;;;;5123100;27;20283;-79
2022/11/06 08:38:49;;;;;;;13.93;9.60;;;8.20;1.00;;;;;;5124263;27;20243;-79
2022/11/06 08:41:18;;;;;;;13.70;9.30;;;8.30;1.00;;;;;;5123263;27;20288;-78
2022/11/06 08:43:45;;;;;;;15.63;9.40;;;8.30;1.00;;;;;;5120058;27;20233;-77
2022/11/06 08:46:14;;;;;;;16.88;9.77;;;8.40;1.00;;;;;;5123071;27;20229;-77
2022/11/06 08:48:41;;;;;;;14.45;9.90;;;8.40;1.00;;;;;;5123384;27;20245;-77
2022/11/06 08:51:08;;;;;;;16.60;10.23;;;8.60;1.00;;;;;;5127375;27;21093;-79
2022/11/06 08:53:39;;;;;;;14.68;8.73;;;8.90;1.00;;;;;;5120329;27;20309;-77
2022/11/06 08:56:07;;;;;;;15.27;8.88;;;8.90;1.00;;;;;;5123575;27;20238;-77
2022/11/06 08:58:34;;;;;;;16.85;8.63;;;8.90;1.00;;;;;;5123067;27;20609;-79
2022/11/06 09:01:01;;;;;;;13.27;9.77;;;8.90;1.00;;;;;;5125832;27;20247;-78
2022/11/06 09:03:29;;;;;;;17.35;9.02;;;9.00;1.00;;;;;;5118158;27;20247;-77
2022/11/06 09:05:56;;;;;;;14.27;8.85;;;9.00;1.00;;;;;;5134417;27;20235;-77
2022/11/06 09:08:23;;;;;;;13.98;9.18;;;9.00;1.00;;;;;;5125488;27;20615;-78
2022/11/06 09:10:50;;;;;;;14.45;10.15;;;9.70;1.00;;;;;;5120302;27;20244;-78
2022/11/06 09:13:19;;;;;;;12.07;8.50;;;10.90;1.00;;;;;;5127199;27;20242;-78
2022/11/06 09:15:48;;;;;;;14.00;9.10;;;11.60;1.00;;;;;;5122002;27;20447;-79
2022/11/06 09:18:17;;;;;;;11.60;7.83;;;11.90;1.00;;;;;;5128571;27;20463;-79
2022/11/06 09:20:46;;;;;;;13.60;9.40;;;11.80;1.00;;;;;;5126145;27;20524;-78
2022/11/06 09:23:13;;;;;;;12.23;7.90;;;11.80;1.00;;;;;;5124100;27;20541;-78
2022/11/06 09:25:40;;;;;;;14.10;8.87;;;11.60;1.00;;;;;;5122190;27;20449;-78
2022/11/06 09:28:07;;;;;;;14.33;8.00;;;11.60;1.00;;;;;;5122227;27;20467;-78
2022/11/06 09:30:34;;;;;;;12.87;8.10;;;11.30;1.00;;;;;;5125044;27;20843;-77
2022/11/06 09:33:04;;;;;;;12.80;7.63;;;11.10;1.00;;;;;;5123132;27;20982;-76
2022/11/06 09:35:34;;;;;;;12.60;8.60;;;11.20;1.00;;;;;;5122708;27;20995;-78
2022/11/06 09:38:03;;;;;;;12.90;7.43;;;11.80;1.00;;;;;;5110867;27;20883;-79
2022/11/06 09:40:33;;;;;;;11.90;7.27;;;12.40;1.00;;;;;;5122933;27;20452;-78
2022/11/06 09:43:11;;;;;;;12.90;7.00;;;12.90;1.00;;;;;;5122621;27;20460;-78
2022/11/06 09:45:39;;;;;;;9.73;6.47;;;13.60;1.00;;;;;;5126658;27;20412;-78
2022/11/06 09:48:17;;;;;;;10.40;6.57;;;13.70;1.00;;;;;;5119330;27;20585;-77
2022/11/06 09:50:49;;;;;;;12.40;6.63;;;13.10;1.00;;;;;;5133877;27;20465;-77
2022/11/06 09:53:24;;;;;;;10.47;6.37;;;12.80;1.00;;;;;;5122171;27;20436;-77
2022/11/06 09:55:52;;;;;;;10.03;6.47;;;12.40;1.00;;;;;;5111845;27;20455;-77
2022/11/06 09:58:25;;;;;;;10.03;7.03;;;11.90;1.00;;;;;;5129555;27;20558;-80
2022/11/06 10:00:54;;;;;;;11.07;7.10;;;11.50;1.00;;;;;;5123194;27;20447;-79
2022/11/06 10:03:29;;;;;;;12.77;7.43;;;11.40;1.00;;;;;;5117792;27;21021;-78
2022/11/06 10:05:56;;;;;;;11.70;6.33;;;11.30;1.00;;;;;;5121029;27;20456;-79
2022/11/06 10:08:28;;;;;;;10.57;6.20;;;11.30;1.00;;;;;;5122905;27;20486;-77
2022/11/06 10:11:02;;;;;;;12.03;7.30;;;11.40;1.00;;;;;;5124139;27;20853;-78
2022/11/06 10:13:50;;;;;;;9.97;6.40;;;11.60;1.00;;;;;;5130044;27;20465;-80
2022/11/06 10:16:27;;;;;;;10.97;6.47;;;12.30;1.00;;;;;;5129797;27;20776;-79
2022/11/06 10:19:04;;;;;;;11.10;6.90;;;12.60;1.00;;;;;;5127128;27;20478;-78
2022/11/06 10:21:41;;;;;;;8.83;5.70;;;12.50;1.00;;;;;;5125612;27;20450;-79
2022/11/06 10:24:31;;;;;;;12.10;6.20;;;12.90;1.00;;;;;;5127754;27;20934;-77
2022/11/06 10:27:02;;;;;;;9.30;6.43;;;13.00;1.00;;;;;;5131531;27;20447;-78
2022/11/06 10:30:02;;;;;;;9.27;5.90;;;13.00;1.00;;;;;;5127463;27;20977;-79
2022/11/06 10:33:04;;;;;;;11.33;7.73;;;13.50;1.00;;;;;;5124407;27;20951;-78
2022/11/06 10:35:37;;;;;;;11.27;6.80;;;13.60;1.00;;;;;;5126842;27;20476;-79
2022/11/06 10:38:10;;;;;;;11.90;6.00;;;13.60;1.00;;;;;;5131267;27;21186;-77
2022/11/06 10:40:44;;;;;;;9.60;5.73;;;13.30;1.00;;;;;;5133251;27;20530;-78
2022/11/06 10:43:22;;;;;;;10.17;6.00;;;13.20;1.00;;;;;;5127557;27;20586;-77
2022/11/06 10:45:58;;;;;;;11.17;6.53;;;13.40;1.00;;;;;;5116070;27;20544;-78
2022/11/06 10:48:32;;;;;;;11.33;6.80;;;13.60;1.00;;;;;;5120747;27;20558;-77
2022/11/06 10:51:14;;;;;;;11.17;6.20;;;13.80;1.00;;;;;;5115111;27;20433;-77
2022/11/06 10:53:50;;;;;;;12.00;5.97;;;14.60;1.00;;;;;;5128180;27;20429;-79
2022/11/06 10:56:36;;;;;;;11.43;6.63;;;15.70;1.00;;;;;;5125606;27;20465;-78
2022/11/06 10:59:04;;;;;;;10.30;5.93;;;16.60;1.00;;;;;;5123014;27;20484;-79
2022/11/06 11:01:30;;;;;;;8.70;6.30;;;16.80;1.00;;;;;;5125745;27;20438;-78
2022/11/06 11:03:57;;;;;;;10.90;6.27;;;16.70;1.00;;;;;;5124956;27;20443;-77
2022/11/06 11:06:24;;;;;;;9.17;6.20;;;16.10;1.00;;;;;;5127923;27;21235;-77
2022/11/06 11:08:52;;;;;;;9.50;5.30;;;15.90;1.00;;;;;;5129070;27;20540;-80
2022/11/06 11:11:23;;;;;;;9.47;5.67;;;15.70;1.00;;;;;;5124651;27;20484;-77
2022/11/06 11:14:07;;;;;;;8.70;5.57;;;15.60;1.00;;;;;;5122523;27;21193;-79
2022/11/06 11:16:39;;;;;;;12.27;6.80;;;16.10;1.00;;;;;;5130294;27;20444;-79
2022/11/06 11:19:23;;;;;;;10.67;5.73;;;16.30;1.00;;;;;;5129559;27;20462;-79
2022/11/06 11:21:55;;;;;;;9.70;5.33;;;16.00;1.00;;;;;;5129066;27;20479;-78
2022/11/06 11:24:22;;;;;;;10.37;6.10;;;16.40;1.00;;;;;;5133748;27;20517;-78
2022/11/06 11:26:52;;;;;;;9.00;5.60;;;16.80;1.00;;;;;;5121485;27;20455;-80
2022/11/06 11:29:23;;;;;;;11.90;6.27;;;17.00;1.00;;;;;;5125330;27;20428;-79
2022/11/06 11:31:52;;;;;;;10.80;5.57;;;17.40;1.00;;;;;;5130119;27;20496;-79
2022/11/06 11:34:24;;;;;;;9.90;5.60;;;17.90;1.00;;;;;;5127975;27;20448;-81
2022/11/06 11:36:58;;;;;;;9.97;6.00;;;18.40;1.00;;;;;;5128641;27;20537;-79
2022/11/06 11:39:28;;;;;;;9.70;5.37;;;18.80;1.00;;;;;;5125527;27;20484;-80
2022/11/06 11:42:18;;;;;;;9.10;5.53;;;17.90;1.00;;;;;;5126685;27;20524;-80
2022/11/06 11:44:46;;;;;;;8.27;5.13;;;17.50;1.00;;;;;;5127654;27;20485;-80
2022/11/06 11:47:21;;;;;;;9.90;5.57;;;17.50;1.00;;;;;;5111516;27;20462;-81
2022/11/06 11:49:48;;;;;;;10.87;5.50;;;17.70;1.00;;;;;;5134763;27;20465;-81
2022/11/06 11:52:21;;;;;;;8.63;5.70;;;18.00;1.00;;;;;;5127489;27;20559;-79
2022/11/06 11:54:53;;;;;;;9.60;5.30;;;18.60;1.00;;;;;;5124632;27;20484;-79
2022/11/06 11:57:25;;;;;;;9.80;4.57;;;19.30;1.00;;;;;;5127682;27;20449;-82
2022/11/06 11:59:59;;;;;;;11.23;5.03;;;20.00;1.00;;;;;;5126628;27;20992;-81
2022/11/06 12:02:31;;;;;;;9.37;4.70;;;19.70;1.00;;;;;;5127581;27;20558;-79
2022/11/06 12:05:01;;;;;;;9.57;5.03;;;20.40;1.00;;;;;;5121766;27;20468;-80
2022/11/06 12:07:30;;;;;;;8.27;4.83;;;21.40;1.00;;;;;;5139552;27;20498;-79
2022/11/06 12:10:03;;;;;;;8.80;4.90;;;21.50;1.00;;;;;;5123345;27;20418;-80
2022/11/06 12:12:36;;;;;;;8.23;4.93;;;20.90;1.00;;;;;;5128255;27;20434;-80
2022/11/06 12:15:18;;;;;;;8.43;4.93;;;20.70;1.00;;;;;;5117215;27;20420;-82
2022/11/06 12:17:51;;;;;;;7.73;4.53;;;20.40;1.00;;;;;;5113286;27;20473;-80
2022/11/06 12:20:20;;;;;;;9.50;4.90;;;20.30;1.00;;;;;;5127900;27;20486;-81
2022/11/06 12:22:51;;;;;;;7.07;4.60;;;20.30;1.00;;;;;;5128583;27;20546;-80
2022/11/06 12:25:24;;;;;;;7.70;4.30;;;20.70;1.00;;;;;;5125986;27;20564;-80
2022/11/06 12:27:55;;;;;;;7.10;4.30;;;20.70;1.00;;;;;;5101281;27;20961;-80
2022/11/06 12:30:23;;;;;;;7.90;3.80;;;20.30;1.00;;;;;;5130698;27;20463;-79
2022/11/06 12:33:04;;;;;;;7.50;4.13;;;20.10;1.00;;;;;;5124081;27;20552;-79
2022/11/06 12:38:32;;;;;;;8.13;4.20;;;20.00;1.00;;;;;;5117262;27;20470;-79
2022/11/06 12:41:03;;;;;;;9.80;4.10;;;19.80;1.00;;;;;;5092293;27;20481;-79
2022/11/06 12:43:41;;;;;;;8.13;3.87;;;19.30;1.00;;;;;;5127492;27;20431;-80
2022/11/06 12:46:32;;;;;;;8.07;3.60;;;19.10;1.00;;;;;;5134646;27;20473;-79
2022/11/06 12:49:29;;;;;;;7.90;3.60;;;19.00;1.00;;;;;;5116104;27;20625;-81
2022/11/06 12:52:09;;;;;;;6.30;3.93;;;18.70;1.00;;;;;;5129805;27;20555;-81
2022/11/06 12:55:05;;;;;;;8.37;4.10;;;18.90;1.00;;;;;;5127752;27;20480;-80
2022/11/06 12:57:48;;;;;;;7.87;4.10;;;18.60;1.00;;;;;;5115806;27;20450;-80
2022/11/06 13:00:21;;;;;;;9.10;4.60;;;18.60;1.00;;;;;;5122030;27;20486;-80
2022/11/06 13:03:14;;;;;;;8.50;4.00;;;17.90;1.00;;;;;;5133673;27;20482;-79
2022/11/06 13:05:51;;;;;;;8.27;4.40;;;17.40;1.00;;;;;;5108577;27;20452;-80
2022/11/06 13:08:31;;;;;;;7.77;4.07;;;17.80;1.00;;;;;;5109801;27;20483;-80
2022/11/06 13:11:23;;;;;;;9.73;4.07;;;19.00;1.00;;;;;;5086418;27;20459;-80
2022/11/06 13:14:05;;;;;;;7.83;4.03;;;19.30;1.00;;;;;;5100183;27;20452;-81
2022/11/06 13:16:42;;;;;;;8.10;3.67;;;18.40;1.00;;;;;;5125489;27;20484;-79
2022/11/06 13:19:20;;;;;;;7.47;3.40;;;17.10;1.00;;;;;;5125958;27;20494;-79
2022/11/06 13:22:14;;;;;;;7.67;3.70;;;16.70;1.00;;;;;;5121552;27;21265;-81
2022/11/06 13:24:47;;;;;;;7.90;3.40;;;16.60;1.00;;;;;;5127634;27;20489;-79
2022/11/06 13:27:34;;;;;;;7.40;3.00;;;16.00;1.00;;;;;;5128811;27;20540;-80
2022/11/06 13:30:05;;;;;;;8.00;3.57;;;15.50;1.00;;;;;;5125719;27;20474;-80
2022/11/06 13:32:39;;;;;;;9.63;3.90;;;15.00;1.00;;;;;;5126464;27;20461;-80
2022/11/06 13:35:12;;;;;;;9.10;3.63;;;14.60;1.00;;;;;;5137364;27;20439;-79